createdAt,value
2022-08-12T00:00:01.461Z,22.88
2022-08-12T00:02:48.060Z,22.84
2022-08-12T00:05:35.292Z,22.83
2022-08-12T00:08:28.732Z,22.79
2022-08-12T00:11:22.984Z,22.90
2022-08-12T00:14:08.564Z,22.94
2022-08-12T00:16:55.678Z,22.89
2022-08-12T00:19:41.268Z,22.94
2022-08-12T00:22:28.554Z,23.07
2022-08-12T00:25:21.556Z,23.05
2022-08-12T00:28:27.154Z,23.09
2022-08-12T00:31:13.098Z,22.89
2022-08-12T00:33:58.216Z,22.91
2022-08-12T00:36:50.271Z,22.88
2022-08-12T00:39:36.292Z,22.83
2022-08-12T00:42:10.907Z,22.72
2022-08-12T00:44:45.555Z,22.92
2022-08-12T00:47:24.018Z,22.76
2022-08-12T00:49:53.977Z,22.70
2022-08-12T00:52:22.504Z,22.74
2022-08-12T00:54:58.747Z,22.63
2022-08-12T00:57:37.774Z,22.65
2022-08-12T01:00:11.585Z,22.54
2022-08-12T01:02:47.139Z,22.67
2022-08-12T01:05:35.904Z,22.55
2022-08-12T01:08:22.064Z,22.46
2022-08-12T01:11:08.606Z,22.53
2022-08-12T01:13:41.023Z,22.58
2022-08-12T01:16:09.473Z,22.61
2022-08-12T01:18:38.917Z,22.33
2022-08-12T01:21:39.556Z,22.52
2022-08-12T01:24:31.904Z,22.40
2022-08-12T01:27:01.447Z,22.55
2022-08-12T01:29:32.681Z,22.39
2022-08-12T01:32:05.534Z,22.51
2022-08-12T01:34:39.434Z,22.49
2022-08-12T01:37:08.839Z,22.46
2022-08-12T01:40:34.535Z,22.47
2022-08-12T01:42:34.149Z,22.24
2022-08-12T01:45:02.483Z,22.22
2022-08-12T01:47:35.524Z,22.54
2022-08-12T01:50:17.355Z,22.51
2022-08-12T01:53:11.337Z,22.51
2022-08-12T01:55:41.995Z,22.43
2022-08-12T01:58:18.829Z,22.46
2022-08-12T02:00:59.158Z,22.33
2022-08-12T02:04:21.469Z,22.44
2022-08-12T02:07:31.677Z,22.38
2022-08-12T02:11:01.467Z,22.37
2022-08-12T02:13:49.140Z,22.25
2022-08-12T02:16:31.863Z,22.38
2022-08-12T02:19:22.898Z,22.24
2022-08-12T02:22:28.267Z,22.49
2022-08-12T02:25:18.667Z,22.45
2022-08-12T02:27:48.572Z,22.53
2022-08-12T02:30:19.429Z,22.36
2022-08-12T02:32:48.832Z,22.29
2022-08-12T02:35:21.108Z,22.33
2022-08-12T02:37:50.073Z,22.51
2022-08-12T02:40:18.239Z,22.35
2022-08-12T02:42:53.896Z,22.17
2022-08-12T02:45:53.623Z,22.35
2022-08-12T02:48:27.262Z,22.13
2022-08-12T02:50:58.397Z,22.05
2022-08-12T02:53:26.963Z,22.16
2022-08-12T02:55:54.265Z,22.08
2022-08-12T02:58:21.050Z,22.26
2022-08-12T03:01:01.657Z,22.13
2022-08-12T03:03:32.416Z,21.98
2022-08-12T03:06:01.960Z,21.90
2022-08-12T03:08:33.122Z,22.12
2022-08-12T03:11:19.696Z,22.16
2022-08-12T03:13:52.071Z,22.03
2022-08-12T03:16:20.942Z,21.90
2022-08-12T03:18:49.534Z,21.86
2022-08-12T03:21:53.063Z,21.62
2022-08-12T03:24:09.007Z,21.81
2022-08-12T03:26:36.958Z,21.63
2022-08-12T03:29:07.601Z,21.63
2022-08-12T03:31:34.615Z,21.53
2022-08-12T03:34:12.400Z,21.13
2022-08-12T03:36:41.685Z,21.19
2022-08-12T03:39:18.537Z,21.29
2022-08-12T03:42:06.975Z,21.17
2022-08-12T03:45:04.428Z,21.24
2022-08-12T03:47:49.759Z,21.18
2022-08-12T03:50:35.782Z,21.11
2022-08-12T03:53:24.680Z,20.91
2022-08-12T03:56:10.394Z,20.86
2022-08-12T03:58:56.562Z,20.97
2022-08-12T04:01:23.569Z,20.91
2022-08-12T04:03:53.462Z,20.96
2022-08-12T04:06:35.393Z,21.08
2022-08-12T04:09:16.279Z,20.83
2022-08-12T04:12:03.368Z,21.01
2022-08-12T04:14:30.478Z,20.90
2022-08-12T04:16:57.908Z,21.10
2022-08-12T04:19:26.235Z,21.17
2022-08-12T04:22:01.821Z,21.18
2022-08-12T04:24:37.992Z,21.36
2022-08-12T04:27:09.904Z,21.48
2022-08-12T04:30:30.138Z,21.57
2022-08-12T04:32:25.990Z,21.68
2022-08-12T04:34:53.333Z,21.94
2022-08-12T04:37:20.232Z,21.97
2022-08-12T04:39:47.379Z,22.10
2022-08-12T04:42:14.450Z,22.25
2022-08-12T04:44:42.223Z,22.44
2022-08-12T04:47:17.110Z,22.57
2022-08-12T04:49:48.314Z,22.70
2022-08-12T04:52:15.228Z,22.63
2022-08-12T04:54:43.940Z,22.89
2022-08-12T04:57:10.919Z,23.10
2022-08-12T04:59:47.329Z,23.26
2022-08-12T05:02:22.854Z,23.24
2022-08-12T05:05:00.631Z,23.12
2022-08-12T05:07:27.767Z,23.20
2022-08-12T05:10:00.337Z,23.44
2022-08-12T05:12:36.121Z,23.62
2022-08-12T05:15:27.502Z,23.61
2022-08-12T05:17:51.977Z,23.55
2022-08-12T05:20:21.107Z,23.80
2022-08-12T05:22:48.025Z,24.06
2022-08-12T05:25:17.772Z,23.98
2022-08-12T05:27:55.444Z,24.27
2022-08-12T05:30:31.042Z,24.69
2022-08-12T05:33:00.291Z,24.73
2022-08-12T05:35:28.039Z,25.05
2022-08-12T05:38:14.902Z,25.75
2022-08-12T05:40:42.154Z,26.43
2022-08-12T05:43:09.062Z,26.71
2022-08-12T05:45:35.790Z,26.90
2022-08-12T05:48:02.812Z,26.95
2022-08-12T05:50:29.633Z,27.18
2022-08-12T05:52:56.413Z,27.65
2022-08-12T05:55:25.819Z,27.80
2022-08-12T05:57:56.179Z,28.02
2022-08-12T06:00:25.909Z,28.19
2022-08-12T06:03:01.457Z,28.25
2022-08-12T06:05:28.975Z,28.45
2022-08-12T06:08:01.284Z,28.55
2022-08-12T06:10:32.171Z,28.22
2022-08-12T06:13:04.138Z,28.53
2022-08-12T06:15:32.120Z,28.59
2022-08-12T06:18:16.248Z,28.94
2022-08-12T06:20:43.942Z,28.47
2022-08-12T06:23:11.863Z,28.62
2022-08-12T06:25:39.110Z,28.77
2022-08-12T06:28:17.613Z,29.14
2022-08-12T06:30:57.319Z,29.13
2022-08-12T06:33:55.465Z,29.17
2022-08-12T06:36:29.340Z,29.40
2022-08-12T06:38:56.858Z,29.27
2022-08-12T06:42:05.203Z,29.27
2022-08-12T06:44:28.853Z,29.31
2022-08-12T06:46:56.882Z,28.40
2022-08-12T06:49:25.455Z,28.16
2022-08-12T06:51:56.367Z,28.05
2022-08-12T06:54:31.359Z,28.26
2022-08-12T06:57:05.406Z,28.44
2022-08-12T06:59:46.724Z,28.47
2022-08-12T07:02:13.820Z,28.69
2022-08-12T07:04:40.681Z,28.99
2022-08-12T07:07:10.972Z,29.35
2022-08-12T07:10:06.032Z,29.84
2022-08-12T07:12:27.914Z,29.69
2022-08-12T07:14:58.999Z,29.74
2022-08-12T07:17:31.661Z,29.77
2022-08-12T07:20:04.015Z,29.95
2022-08-12T07:22:31.351Z,30.07
2022-08-12T07:25:16.860Z,30.38
2022-08-12T07:27:44.214Z,30.72
2022-08-12T07:30:11.637Z,31.03
2022-08-12T07:32:38.474Z,30.75
2022-08-12T07:35:05.611Z,30.95
2022-08-12T07:37:33.621Z,30.95
2022-08-12T07:40:01.301Z,31.24
2022-08-12T07:42:29.688Z,31.35
2022-08-12T07:44:56.865Z,31.41
2022-08-12T07:47:24.382Z,31.23
2022-08-12T07:50:03.603Z,31.45
2022-08-12T07:52:33.953Z,31.19
2022-08-12T07:55:01.140Z,31.11
2022-08-12T07:57:27.856Z,31.41
2022-08-12T07:59:55.943Z,31.37
2022-08-12T08:02:27.134Z,31.54
2022-08-12T08:04:57.366Z,31.53
2022-08-12T08:07:30.864Z,31.65
2022-08-12T08:10:02.338Z,31.53
2022-08-12T08:12:48.348Z,31.43
2022-08-12T08:15:16.088Z,31.30
2022-08-12T08:18:04.529Z,31.56
2022-08-12T08:20:43.235Z,31.69
2022-08-12T08:23:19.425Z,31.61
2022-08-12T08:25:46.346Z,31.65
2022-08-12T08:28:19.610Z,31.43
2022-08-12T08:30:47.906Z,31.41
2022-08-12T08:33:23.525Z,31.46
2022-08-12T08:36:05.253Z,31.51
2022-08-12T08:38:34.854Z,31.78
2022-08-12T08:42:18.802Z,32.15
2022-08-12T08:44:13.373Z,32.09
2022-08-12T08:46:41.418Z,31.95
2022-08-12T08:49:08.657Z,32.13
2022-08-12T08:51:36.526Z,32.36
2022-08-12T08:54:03.469Z,32.55
2022-08-12T08:56:30.542Z,32.54
2022-08-12T08:59:00.633Z,32.60
2022-08-12T09:01:37.441Z,32.65
2022-08-12T09:05:09.146Z,32.77
2022-08-12T09:12:54.562Z,32.53
2022-08-12T09:18:14.433Z,32.94
2022-08-12T09:20:42.882Z,32.91
2022-08-12T09:23:58.695Z,32.93
2022-08-12T09:26:04.324Z,32.77
2022-08-12T09:32:04.112Z,33.29
2022-08-12T09:34:26.053Z,33.72
2022-08-12T09:37:01.205Z,33.65
2022-08-12T09:40:01.743Z,33.53
2022-08-12T09:42:43.992Z,33.47
2022-08-12T09:45:23.312Z,33.47
2022-08-12T09:47:58.835Z,33.10
2022-08-12T09:50:27.116Z,33.29
2022-08-12T09:53:29.526Z,33.79
2022-08-12T09:58:59.696Z,34.49
2022-08-12T10:01:35.470Z,34.83
2022-08-12T10:04:19.446Z,34.68
2022-08-12T10:06:55.316Z,34.55
2022-08-12T10:09:56.890Z,34.61
2022-08-12T10:12:33.109Z,34.04
2022-08-12T10:15:02.079Z,33.61
2022-08-12T10:17:29.002Z,33.61
2022-08-12T10:19:55.779Z,33.78
2022-08-12T10:22:40.084Z,33.46
2022-08-12T10:26:34.420Z,33.75
2022-08-12T10:28:39.029Z,34.33
2022-08-12T10:31:06.669Z,34.25
2022-08-12T10:34:04.891Z,33.77
2022-08-12T10:36:40.893Z,33.72
2022-08-12T10:39:59.992Z,34.03
2022-08-12T10:42:29.258Z,34.15
2022-08-12T10:45:01.196Z,32.62
2022-08-12T10:48:07.862Z,32.49
2022-08-12T10:50:32.617Z,32.81
2022-08-12T10:53:11.241Z,33.45
2022-08-12T10:55:47.373Z,33.14
2022-08-12T10:58:27.830Z,33.02
2022-08-12T11:01:49.062Z,32.52
2022-08-12T11:04:26.122Z,32.34
2022-08-12T11:07:06.339Z,32.35
2022-08-12T11:09:51.411Z,32.09
2022-08-12T11:12:55.019Z,32.41
2022-08-12T11:14:59.323Z,32.88
2022-08-12T11:17:43.541Z,33.38
2022-08-12T11:20:15.305Z,33.98
2022-08-12T11:22:42.544Z,34.33
2022-08-12T11:25:25.033Z,34.78
2022-08-12T11:28:13.397Z,34.70
2022-08-12T11:30:40.708Z,34.43
2022-08-12T11:33:12.120Z,34.04
2022-08-12T11:35:54.054Z,34.02
2022-08-12T11:38:24.365Z,34.43
2022-08-12T11:40:51.844Z,34.79
2022-08-12T11:43:20.465Z,35.14
2022-08-12T11:45:52.913Z,34.98
2022-08-12T11:48:20.568Z,34.51
2022-08-12T11:50:54.219Z,34.13
2022-08-12T11:53:57.302Z,33.70
2022-08-12T11:56:11.481Z,33.52
2022-08-12T12:01:02.731Z,34.09
2022-08-12T12:02:01.350Z,34.83
2022-08-12T12:04:11.812Z,34.95
2022-08-12T12:06:38.659Z,35.25
2022-08-12T12:09:08.017Z,35.26
2022-08-12T12:11:49.052Z,34.55
2022-08-12T12:14:17.884Z,34.14
2022-08-12T12:16:48.260Z,33.79
2022-08-12T12:19:17.841Z,33.47
2022-08-12T12:21:48.361Z,33.44
2022-08-12T12:24:22.141Z,33.75
2022-08-12T12:27:00.195Z,33.35
2022-08-12T12:30:13.867Z,32.98
2022-08-12T12:32:18.352Z,32.74
2022-08-12T12:35:14.404Z,32.46
2022-08-12T12:38:03.485Z,32.15
2022-08-12T12:40:21.539Z,31.77
2022-08-12T12:42:57.723Z,32.19
2022-08-12T12:45:28.358Z,32.47
2022-08-12T12:48:02.635Z,32.69
2022-08-12T12:50:45.011Z,33.03
2022-08-12T12:54:06.949Z,33.16
2022-08-12T12:56:13.611Z,33.17
2022-08-12T12:58:40.385Z,33.06
2022-08-12T13:01:26.891Z,33.18
2022-08-12T13:04:02.383Z,33.20
2022-08-12T13:06:30.937Z,33.18
2022-08-12T13:09:03.434Z,33.07
2022-08-12T13:11:41.213Z,32.78
2022-08-12T13:14:13.029Z,32.76
2022-08-12T13:16:55.372Z,32.64
2022-08-12T13:19:26.071Z,32.45
2022-08-12T13:22:20.402Z,32.51
2022-08-12T13:24:55.008Z,32.26
2022-08-12T13:27:23.259Z,32.13
2022-08-12T13:30:00.839Z,31.86
2022-08-12T13:32:41.487Z,31.98
2022-08-12T13:35:20.419Z,32.14
2022-08-12T13:37:57.639Z,32.37
2022-08-12T13:40:27.392Z,32.63
2022-08-12T13:42:59.066Z,32.40
2022-08-12T13:45:29.126Z,32.24
2022-08-12T13:48:00.366Z,32.14
2022-08-12T13:50:38.817Z,31.94
2022-08-12T13:53:24.669Z,31.82
2022-08-12T13:55:59.298Z,31.58
2022-08-12T13:58:26.694Z,31.33
2022-08-12T14:00:54.711Z,31.43
2022-08-12T14:03:28.706Z,31.36
2022-08-12T14:06:15.334Z,31.21
2022-08-12T14:08:43.776Z,31.13
2022-08-12T14:11:12.435Z,31.12
2022-08-12T14:14:03.576Z,31.07
2022-08-12T14:16:38.213Z,31.05
2022-08-12T14:19:21.785Z,30.96
2022-08-12T14:22:00.792Z,31.12
2022-08-12T14:24:40.450Z,31.33
2022-08-12T14:27:10.280Z,31.29
2022-08-12T14:30:04.592Z,31.12
2022-08-12T14:32:35.596Z,31.32
2022-08-12T14:35:09.006Z,31.55
2022-08-12T14:37:56.407Z,31.58
2022-08-12T14:40:30.055Z,31.47
2022-08-12T14:42:58.401Z,31.36
2022-08-12T14:45:44.874Z,31.39
2022-08-12T14:48:13.654Z,31.36
2022-08-12T14:51:09.679Z,31.43
2022-08-12T14:59:57.305Z,31.17
2022-08-12T15:02:20.926Z,31.06
2022-08-12T15:05:03.878Z,30.96
2022-08-12T15:07:34.307Z,30.94
2022-08-12T15:10:31.305Z,30.91
2022-08-12T15:12:59.730Z,31.09
2022-08-12T15:15:28.270Z,31.02
2022-08-12T15:18:02.176Z,30.95
2022-08-12T15:20:37.301Z,30.88
2022-08-12T15:23:18.023Z,31.02
2022-08-12T15:25:48.891Z,30.80
2022-08-12T15:28:24.080Z,30.62
2022-08-12T15:30:54.877Z,30.64
2022-08-12T15:33:25.311Z,30.49
2022-08-12T15:36:19.549Z,30.41
2022-08-12T15:39:04.154Z,30.38
2022-08-12T15:41:49.835Z,30.28
2022-08-12T15:44:41.590Z,30.23
2022-08-12T15:47:05.208Z,30.04
2022-08-12T15:49:42.960Z,30.24
2022-08-12T15:52:10.215Z,30.11
2022-08-12T15:54:53.948Z,30.24
2022-08-12T15:57:25.366Z,30.06
2022-08-12T16:00:06.723Z,30.01
2022-08-12T16:02:47.380Z,30.14
2022-08-12T16:06:13.249Z,30.15
2022-08-12T16:08:17.250Z,29.97
2022-08-12T16:10:45.596Z,29.88
2022-08-12T16:13:16.212Z,30.06
2022-08-12T16:16:01.702Z,29.95
2022-08-12T16:18:31.486Z,29.86
2022-08-12T16:20:58.343Z,29.62
2022-08-12T16:23:51.293Z,29.62
2022-08-12T16:26:15.080Z,29.56
2022-08-12T16:28:43.227Z,29.49
2022-08-12T16:31:14.380Z,29.44
2022-08-12T16:33:58.620Z,29.45
2022-08-12T16:36:27.124Z,29.41
2022-08-12T16:38:53.828Z,29.28
2022-08-12T16:41:22.537Z,29.20
2022-08-12T16:43:50.546Z,29.23
2022-08-12T16:46:32.301Z,29.21
2022-08-12T16:49:04.115Z,29.00
2022-08-12T16:51:40.469Z,29.10
2022-08-12T16:54:15.982Z,29.02
2022-08-12T16:56:55.306Z,28.76
2022-08-12T16:59:30.821Z,28.64
2022-08-12T17:02:31.635Z,28.51
2022-08-12T17:05:07.421Z,28.36
2022-08-12T17:07:43.422Z,28.50
2022-08-12T17:10:18.196Z,28.31
2022-08-12T17:12:45.385Z,28.14
2022-08-12T17:15:50.682Z,27.85
2022-08-12T17:18:39.055Z,27.68
2022-08-12T17:20:49.315Z,27.69
2022-08-12T17:23:18.085Z,27.64
2022-08-12T17:25:53.038Z,27.59
2022-08-12T17:28:22.520Z,27.54
2022-08-12T17:30:57.438Z,27.28
2022-08-12T17:33:26.971Z,27.38
2022-08-12T17:35:58.654Z,27.18
2022-08-12T17:38:25.383Z,27.14
2022-08-12T17:40:54.532Z,27.03
2022-08-12T17:43:56.247Z,27.24
2022-08-12T17:46:12.955Z,27.04
2022-08-12T17:48:54.812Z,26.85
2022-08-12T17:51:24.545Z,26.76
2022-08-12T17:54:10.543Z,26.92
2022-08-12T17:56:43.209Z,26.99
2022-08-12T17:59:12.301Z,27.00
2022-08-12T18:01:43.252Z,27.00
2022-08-12T18:04:21.943Z,27.00
2022-08-12T18:06:51.945Z,27.02
2022-08-12T18:09:21.240Z,26.90
2022-08-12T18:12:08.236Z,26.77
2022-08-12T18:14:36.917Z,26.86
2022-08-12T18:17:08.213Z,27.03
2022-08-12T18:20:05.421Z,26.91
2022-08-12T18:22:30.490Z,27.09
2022-08-12T18:25:02.735Z,27.06
2022-08-12T18:27:43.700Z,26.96
2022-08-12T18:30:16.400Z,26.74
2022-08-12T18:32:58.275Z,26.99
2022-08-12T18:35:29.981Z,27.05
2022-08-12T18:38:16.734Z,26.96
2022-08-12T18:41:04.152Z,27.11
2022-08-12T18:43:38.994Z,27.04
2022-08-12T18:46:27.512Z,26.97
2022-08-12T18:48:57.950Z,26.96
2022-08-12T18:52:02.263Z,26.98
2022-08-12T18:54:36.399Z,26.76
2022-08-12T18:57:20.023Z,26.80
2022-08-12T18:59:59.981Z,26.87
2022-08-12T19:02:32.110Z,26.80
2022-08-12T19:04:59.033Z,26.71
2022-08-12T19:07:29.796Z,26.69
2022-08-12T19:10:13.990Z,26.84
2022-08-12T19:13:00.273Z,26.88
2022-08-12T19:15:30.086Z,26.86
2022-08-12T19:18:02.553Z,26.66
2022-08-12T19:20:30.628Z,26.85
2022-08-12T19:23:02.342Z,26.76
2022-08-12T19:26:01.641Z,27.01
2022-08-12T19:28:29.494Z,26.74
2022-08-12T19:31:15.586Z,26.81
2022-08-12T19:34:00.909Z,26.79
2022-08-12T19:36:34.713Z,26.74
2022-08-12T19:39:02.944Z,26.64
2022-08-12T19:42:01.426Z,26.80
2022-08-12T19:44:29.502Z,26.61
2022-08-12T19:46:56.536Z,26.74
2022-08-12T19:49:23.352Z,26.57
2022-08-12T19:51:51.159Z,26.51
2022-08-12T19:54:30.236Z,26.52
2022-08-12T19:56:58.554Z,26.47
2022-08-12T19:59:43.563Z,26.48
2022-08-12T20:02:34.660Z,26.32
2022-08-12T20:06:03.928Z,26.30
2022-08-12T20:07:59.045Z,26.44
2022-08-12T20:10:35.496Z,26.39
2022-08-12T20:13:19.294Z,26.04
2022-08-12T20:15:59.653Z,26.15
2022-08-12T20:18:44.173Z,26.07
2022-08-12T20:21:15.991Z,26.02
2022-08-12T20:23:59.868Z,26.06
2022-08-12T20:26:27.949Z,26.08
2022-08-12T20:28:55.544Z,25.98
2022-08-12T20:31:22.304Z,26.06
2022-08-12T20:33:56.359Z,26.14
2022-08-12T20:36:40.950Z,26.11
2022-08-12T20:39:35.850Z,26.05
2022-08-12T20:42:07.406Z,26.05
2022-08-12T20:44:40.532Z,26.02
2022-08-12T20:47:19.708Z,25.76
2022-08-12T20:49:55.429Z,25.80
2022-08-12T20:52:29.835Z,25.82
2022-08-12T20:54:58.021Z,25.91
2022-08-12T20:57:38.250Z,25.78
2022-08-12T21:00:16.335Z,25.90
2022-08-12T21:02:49.836Z,25.77
2022-08-12T21:06:09.616Z,25.68
2022-08-12T21:08:27.369Z,25.69
2022-08-12T21:10:59.117Z,25.67
2022-08-12T21:13:27.147Z,25.76
2022-08-12T21:15:59.751Z,25.59
2022-08-12T21:18:28.344Z,25.69
2022-08-12T21:20:58.959Z,25.50
2022-08-12T21:23:30.551Z,25.51
2022-08-12T21:26:01.595Z,25.50
2022-08-12T21:28:31.093Z,25.48
2022-08-12T21:32:35.032Z,25.60
2022-08-12T21:34:07.317Z,25.44
2022-08-12T21:36:39.844Z,25.26
2022-08-12T21:39:20.583Z,25.42
2022-08-12T21:41:53.317Z,25.36
2022-08-12T21:45:46.019Z,25.28
2022-08-12T21:47:20.984Z,25.16
2022-08-12T21:50:03.393Z,25.06
2022-08-12T21:52:40.412Z,25.17
2022-08-12T21:55:18.958Z,24.98
2022-08-12T21:57:53.360Z,25.02
2022-08-12T22:00:24.003Z,24.95
2022-08-12T22:04:01.626Z,24.86
2022-08-12T22:06:26.233Z,24.78
2022-08-12T22:09:02.081Z,24.89
2022-08-12T22:11:41.694Z,24.78
2022-08-12T22:14:21.849Z,24.75
2022-08-12T22:16:52.517Z,24.73
2022-08-12T22:19:22.975Z,24.71
2022-08-12T22:21:53.565Z,24.46
2022-08-12T22:24:26.716Z,24.58
2022-08-12T22:27:08.210Z,24.68
2022-08-12T22:30:16.090Z,24.47
2022-08-12T22:32:51.598Z,24.28
2022-08-12T22:35:55.237Z,24.21
2022-08-12T22:38:29.361Z,24.19
2022-08-12T22:41:00.548Z,24.17
2022-08-12T22:43:58.707Z,24.11
2022-08-12T22:46:52.873Z,24.37
2022-08-12T22:49:48.804Z,24.29
2022-08-12T22:52:13.207Z,24.09
2022-08-12T22:54:46.397Z,24.07
2022-08-12T22:57:49.401Z,24.08
2022-08-12T23:00:23.583Z,23.87
2022-08-12T23:02:51.655Z,23.71
2022-08-12T23:05:23.812Z,23.83
2022-08-12T23:08:13.778Z,23.69
2022-08-12T23:10:44.993Z,23.62
2022-08-12T23:13:30.197Z,23.74
2022-08-12T23:16:28.362Z,23.68
2022-08-12T23:19:38.319Z,23.74
2022-08-12T23:22:36.676Z,23.59
2022-08-12T23:24:53.701Z,23.60
2022-08-12T23:27:44.102Z,23.44
2022-08-12T23:30:25.018Z,23.47
2022-08-12T23:32:59.535Z,23.69
2022-08-12T23:35:46.065Z,23.50
2022-08-12T23:38:28.956Z,23.47
2022-08-12T23:40:58.315Z,23.35
2022-08-12T23:43:25.660Z,23.40
2022-08-12T23:46:00.890Z,23.45
2022-08-12T23:48:31.344Z,23.20
2022-08-12T23:51:01.289Z,23.26
2022-08-12T23:53:32.273Z,23.27
2022-08-12T23:55:59.609Z,23.33
2022-08-12T23:58:28.432Z,23.38
